Time;durP1;ratioP1;P1;durP2;ratioP2;P2;SDS_P1;SDS_P2;PMS_P1;PMS_P2;Temp;Humidity;BMP_temperature;BMP_pressure;BME280_temperature;BME280_humidity;BME280_pressure;Samples;Min_cycle;Max_cycle;Signal;HPM_P1;HPM_P2
2021/01/21 00:00:02;;;;;;;;;;;;;;;;;;5049830;28;20332;-74
2021/01/21 00:02:28;;;;;;;;;;;;;;;;;;5050029;28;19925;-75
2021/01/21 00:04:54;;;;;;;;;;;;;;;;;;5062392;28;19925;-75
2021/01/21 00:07:20;;;;;;;;;;;;;;;;;;5057319;28;19986;-74
2021/01/21 00:09:46;;;;;;;;;;;;;;;;;;5057677;28;19932;-74
2021/01/21 00:12:12;;;;;;;;;;;;;;;;;;5049502;28;19924;-74
2021/01/21 00:14:38;;;;;;;;;;;;;;;;;;5045826;28;20698;-74
2021/01/21 00:17:04;;;;;;;;;;;;;;;;;;5051062;28;19928;-74
2021/01/21 00:19:30;;;;;;;;;;;;;;;;;;5066953;28;20290;-74
2021/01/21 00:21:56;;;;;;;;;;;;;;;;;;5053806;28;19956;-74
2021/01/21 00:24:22;;;;;;;;;;;;;;;;;;5060780;28;19924;-74
2021/01/21 00:26:48;;;;;;;;;;;;;;;;;;5053235;28;20294;-74
2021/01/21 00:29:14;;;;;;;;;;;;;;;;;;5055834;28;19925;-74
2021/01/21 00:31:40;;;;;;;;;;;;;;;;;;5053616;28;20711;-74
2021/01/21 00:34:06;;;;;;;;;;;;;;;;;;5069142;28;19974;-74
2021/01/21 00:36:31;;;;;;;;;;;;;;;;;;5066038;28;19924;-74
2021/01/21 00:38:57;;;;;;;;;;;;;;;;;;5046305;28;19924;-74
2021/01/21 00:41:23;;;;;;;;;;;;;;;;;;5050053;28;19924;-74
2021/01/21 00:43:49;;;;;;;;;;;;;;;;;;5067576;28;19932;-74
2021/01/21 00:46:15;;;;;;;;;;;;;;;;;;5057160;28;20301;-74
2021/01/21 00:48:42;;;;;;;;;;;;;;;;;;5065396;28;19970;-74
2021/01/21 00:51:08;;;;;;;;;;;;;;;;;;5068841;28;19975;-75
2021/01/21 00:53:34;;;;;;;;;;;;;;;;;;5046280;28;20584;-74
2021/01/21 00:56:00;;;;;;;;;;;;;;;;;;5048202;28;19954;-74
2021/01/21 00:58:26;;;;;;;;;;;;;;;;;;5049120;28;19925;-74
2021/01/21 01:00:52;;;;;;;;;;;;;;;;;;5046713;28;19982;-73
2021/01/21 01:03:18;;;;;;;;;;;;;;;;;;5058028;28;19924;-74
2021/01/21 01:05:44;;;;;;;;;;;;;;;;;;5065815;28;19931;-74
2021/01/21 01:08:10;;;;;;;;;;;;;;;;;;5057099;28;19950;-74
2021/01/21 01:10:36;;;;;;;;;;;;;;;;;;5046521;28;19928;-73
2021/01/21 01:13:02;;;;;;;;;;;;;;;;;;5043941;28;19971;-73
2021/01/21 01:15:28;;;;;;;;;;;;;;;;;;5046500;28;19924;-74
2021/01/21 01:17:55;;;;;;;;;;;;;;;;;;5048601;28;20654;-74
2021/01/21 01:20:21;;;;;;;;;;;;;;;;;;5067345;28;19932;-74
2021/01/21 01:22:47;;;;;;;;;;;;;;;;;;5065516;28;19929;-73
2021/01/21 01:25:13;;;;;;;;;;;;;;;;;;5049722;28;19924;-73
2021/01/21 01:27:39;;;;;;;;;;;;;;;;;;5055266;28;19939;-74
2021/01/21 01:30:05;;;;;;;;;;;;;;;;;;5067720;28;19950;-74
2021/01/21 01:32:30;;;;;;;;;;;;;;;;;;5059915;28;19928;-74
2021/01/21 01:34:56;;;;;;;;;;;;;;;;;;5050760;28;19932;-73
2021/01/21 01:37:22;;;;;;;;;;;;;;;;;;5046884;28;19971;-74
2021/01/21 01:39:48;;;;;;;;;;;;;;;;;;5038717;28;19944;-73
2021/01/21 01:42:14;;;;;;;;;;;;;;;;;;5055303;28;19928;-74
2021/01/21 01:44:40;;;;;;;;;;;;;;;;;;5045520;28;19978;-73
2021/01/21 01:47:06;;;;;;;;;;;;;;;;;;5049123;28;19929;-73
2021/01/21 01:49:33;;;;;;;;;;;;;;;;;;5058113;28;19931;-73
2021/01/21 01:51:59;;;;;;;;;;;;;;;;;;5067553;28;20014;-74
2021/01/21 01:54:25;;;;;;;;;;;;;;;;;;5065678;28;19924;-73
2021/01/21 01:56:51;;;;;;;;;;;;;;;;;;5044317;28;19925;-73
2021/01/21 01:59:18;;;;;;;;;;;;;;;;;;5048495;28;19924;-73
2021/01/21 02:01:44;;;;;;;;;;;;;;;;;;5045268;28;19925;-73
2021/01/21 02:04:10;;;;;;;;;;;;;;;;;;5059057;28;20309;-73
2021/01/21 02:06:36;;;;;;;;;;;;;;;;;;5049472;28;19929;-73
2021/01/21 02:09:02;;;;;;;;;;;;;;;;;;5047345;28;20447;-74
2021/01/21 02:11:28;;;;;;;;;;;;;;;;;;5040355;28;19947;-74
2021/01/21 02:13:54;;;;;;;;;;;;;;;;;;5055913;28;19933;-73
2021/01/21 02:16:20;;;;;;;;;;;;;;;;;;5051898;28;20262;-74
2021/01/21 02:18:46;;;;;;;;;;;;;;;;;;5045718;28;19932;-73
2021/01/21 02:21:12;;;;;;;;;;;;;;;;;;5048463;28;19932;-74
2021/01/21 02:23:38;;;;;;;;;;;;;;;;;;5049956;28;19924;-74
2021/01/21 02:26:04;;;;;;;;;;;;;;;;;;5066844;28;19924;-73
2021/01/21 02:28:30;;;;;;;;;;;;;;;;;;5037606;28;19931;-73
2021/01/21 02:30:56;;;;;;;;;;;;;;;;;;5040850;28;19925;-74
2021/01/21 02:33:22;;;;;;;;;;;;;;;;;;5045789;28;20270;-74
2021/01/21 02:35:48;;;;;;;;;;;;;;;;;;5044644;28;19925;-73
2021/01/21 02:38:14;;;;;;;;;;;;;;;;;;5046938;28;19925;-73
2021/01/21 02:40:40;;;;;;;;;;;;;;;;;;5043225;28;19925;-73
2021/01/21 02:43:06;;;;;;;;;;;;;;;;;;5041623;28;19977;-74
2021/01/21 02:45:31;;;;;;;;;;;;;;;;;;5049738;28;19924;-74
2021/01/21 02:47:57;;;;;;;;;;;;;;;;;;5046318;28;19932;-74
2021/01/21 02:50:23;;;;;;;;;;;;;;;;;;5045158;28;19975;-73
2021/01/21 02:52:49;;;;;;;;;;;;;;;;;;5044670;28;19924;-73
2021/01/21 02:55:15;;;;;;;;;;;;;;;;;;5046705;28;19932;-73
2021/01/21 02:57:41;;;;;;;;;;;;;;;;;;5043347;28;19925;-73
2021/01/21 03:00:07;;;;;;;;;;;;;;;;;;5037688;28;19925;-74
2021/01/21 03:02:33;;;;;;;;;;;;;;;;;;5063277;28;19924;-73
2021/01/21 03:04:59;;;;;;;;;;;;;;;;;;5066290;28;19925;-74
2021/01/21 03:07:25;;;;;;;;;;;;;;;;;;5065064;28;19925;-74
2021/01/21 03:09:51;;;;;;;;;;;;;;;;;;5065377;28;19924;-73
2021/01/21 03:12:17;;;;;;;;;;;;;;;;;;5066016;28;19986;-73
2021/01/21 03:14:43;;;;;;;;;;;;;;;;;;5052147;28;19940;-73
2021/01/21 03:17:09;;;;;;;;;;;;;;;;;;5046832;28;20351;-73
2021/01/21 03:19:35;;;;;;;;;;;;;;;;;;5043541;28;19925;-74
2021/01/21 03:22:01;;;;;;;;;;;;;;;;;;5046838;28;19928;-73
2021/01/21 03:24:27;;;;;;;;;;;;;;;;;;5045578;28;19925;-73
2021/01/21 03:26:53;;;;;;;;;;;;;;;;;;5066022;28;20655;-73
2021/01/21 03:29:19;;;;;;;;;;;;;;;;;;5066344;28;19928;-73
2021/01/21 03:31:45;;;;;;;;;;;;;;;;;;5048917;28;20766;-73
2021/01/21 03:34:11;;;;;;;;;;;;;;;;;;5066583;28;19929;-74
2021/01/21 03:36:37;;;;;;;;;;;;;;;;;;5062855;28;20812;-73
2021/01/21 03:39:02;;;;;;;;;;;;;;;;;;5067087;28;19924;-74
2021/01/21 03:41:28;;;;;;;;;;;;;;;;;;5065845;28;19925;-73
2021/01/21 03:43:54;;;;;;;;;;;;;;;;;;5067020;28;19924;-74
2021/01/21 03:46:20;;;;;;;;;;;;;;;;;;5064074;28;19936;-74
2021/01/21 03:48:47;;;;;;;;;;;;;;;;;;5041728;28;19932;-74
2021/01/21 03:51:13;;;;;;;;;;;;;;;;;;5054971;28;19925;-73
2021/01/21 03:53:39;;;;;;;;;;;;;;;;;;5049930;28;19974;-74
2021/01/21 03:56:05;;;;;;;;;;;;;;;;;;5050744;28;20305;-75
2021/01/21 03:58:31;;;;;;;;;;;;;;;;;;5049372;28;19929;-74
2021/01/21 04:00:57;;;;;;;;;;;;;;;;;;5049534;28;19924;-74
2021/01/21 04:03:23;;;;;;;;;;;;;;;;;;5041874;28;19925;-73
2021/01/21 04:05:49;;;;;;;;;;;;;;;;;;5066080;28;20436;-73
2021/01/21 04:08:15;;;;;;;;;;;;;;;;;;5070681;28;19925;-73
2021/01/21 04:10:41;;;;;;;;;;;;;;;;;;5067150;28;20340;-73
2021/01/21 04:13:06;;;;;;;;;;;;;;;;;;5070981;28;19936;-73
2021/01/21 04:15:32;;;;;;;;;;;;;;;;;;5068801;28;20245;-73
2021/01/21 04:17:58;;;;;;;;;;;;;;;;;;5070948;28;19928;-73
2021/01/21 04:20:24;;;;;;;;;;;;;;;;;;5060114;28;19925;-73
2021/01/21 04:22:50;;;;;;;;;;;;;;;;;;5069951;28;19929;-73
2021/01/21 04:25:16;;;;;;;;;;;;;;;;;;5070011;28;19947;-73
2021/01/21 04:27:42;;;;;;;;;;;;;;;;;;5069041;28;19931;-73
2021/01/21 04:30:08;;;;;;;;;;;;;;;;;;5071319;28;19924;-74
2021/01/21 04:32:34;;;;;;;;;;;;;;;;;;5068014;28;19924;-74
2021/01/21 04:35:00;;;;;;;;;;;;;;;;;;5056381;28;20316;-74
2021/01/21 04:37:26;;;;;;;;;;;;;;;;;;5048603;28;19925;-74
2021/01/21 04:39:52;;;;;;;;;;;;;;;;;;5049476;28;20328;-74
2021/01/21 04:42:18;;;;;;;;;;;;;;;;;;5050315;28;19925;-74
2021/01/21 04:44:44;;;;;;;;;;;;;;;;;;5047647;28;19925;-74
2021/01/21 04:47:10;;;;;;;;;;;;;;;;;;5050756;28;19974;-74
2021/01/21 04:49:36;;;;;;;;;;;;;;;;;;5046530;28;20667;-74
2021/01/21 04:52:02;;;;;;;;;;;;;;;;;;5042300;28;19924;-74
2021/01/21 04:54:28;;;;;;;;;;;;;;;;;;5047232;28;19947;-74
2021/01/21 04:56:54;;;;;;;;;;;;;;;;;;5049065;28;20369;-74
2021/01/21 04:59:20;;;;;;;;;;;;;;;;;;5049625;28;19970;-74
2021/01/21 05:01:45;;;;;;;;;;;;;;;;;;5049583;28;19967;-74
2021/01/21 05:04:11;;;;;;;;;;;;;;;;;;5069454;28;19932;-74
2021/01/21 05:06:37;;;;;;;;;;;;;;;;;;5047002;28;20282;-74
2021/01/21 05:09:03;;;;;;;;;;;;;;;;;;5049995;28;19925;-74
2021/01/21 05:11:29;;;;;;;;;;;;;;;;;;5047950;28;20374;-73
2021/01/21 05:13:55;;;;;;;;;;;;;;;;;;5048817;28;19925;-74
2021/01/21 05:16:21;;;;;;;;;;;;;;;;;;5048772;28;19928;-74
2021/01/21 05:18:47;;;;;;;;;;;;;;;;;;5047555;28;20660;-74
2021/01/21 05:21:13;;;;;;;;;;;;;;;;;;5041533;28;19929;-74
2021/01/21 05:23:39;;;;;;;;;;;;;;;;;;5058166;28;20573;-74
2021/01/21 05:26:05;;;;;;;;;;;;;;;;;;5049938;28;19925;-73
2021/01/21 05:28:31;;;;;;;;;;;;;;;;;;5046840;28;19928;-74
2021/01/21 05:30:57;;;;;;;;;;;;;;;;;;5048693;28;19925;-74
2021/01/21 05:33:23;;;;;;;;;;;;;;;;;;5048259;28;19925;-74
2021/01/21 05:35:49;;;;;;;;;;;;;;;;;;5047110;28;19929;-74
2021/01/21 05:38:15;;;;;;;;;;;;;;;;;;5047811;28;19924;-73
2021/01/21 05:40:41;;;;;;;;;;;;;;;;;;5065870;28;19948;-74
2021/01/21 05:43:09;;;;;;;;;;;;;;;;;;5069483;28;19974;-76
2021/01/21 05:45:35;;;;;;;;;;;;;;;;;;5065405;28;19932;-73
2021/01/21 05:48:01;;;;;;;;;;;;;;;;;;5069148;28;19928;-73
2021/01/21 05:50:27;;;;;;;;;;;;;;;;;;5066719;28;19924;-73
2021/01/21 05:52:53;;;;;;;;;;;;;;;;;;5045284;28;19932;-73
2021/01/21 05:55:19;;;;;;;;;;;;;;;;;;5046738;28;19924;-74
2021/01/21 05:57:45;;;;;;;;;;;;;;;;;;5046364;28;19925;-73
2021/01/21 06:00:10;;;;;;;;;;;;;;;;;;5048600;28;19951;-74
2021/01/21 06:02:36;;;;;;;;;;;;;;;;;;5045164;28;19925;-73
2021/01/21 06:05:02;;;;;;;;;;;;;;;;;;5052927;28;19924;-73
2021/01/21 06:07:28;;;;;;;;;;;;;;;;;;5058689;28;19925;-74
2021/01/21 06:09:54;;;;;;;;;;;;;;;;;;5050667;28;19925;-74
2021/01/21 06:12:20;;;;;;;;;;;;;;;;;;5047146;28;19932;-73
2021/01/21 06:14:46;;;;;;;;;;;;;;;;;;5045728;28;19974;-74
2021/01/21 06:17:12;;;;;;;;;;;;;;;;;;5048179;28;19925;-73
2021/01/21 06:19:38;;;;;;;;;;;;;;;;;;5044810;28;19925;-73
2021/01/21 06:22:04;;;;;;;;;;;;;;;;;;5063403;28;19924;-74
2021/01/21 06:24:30;;;;;;;;;;;;;;;;;;5043310;28;19925;-74
2021/01/21 06:26:57;;;;;;;;;;;;;;;;;;5046921;28;19925;-74
2021/01/21 06:29:23;;;;;;;;;;;;;;;;;;5047885;28;19988;-75
2021/01/21 06:31:49;;;;;;;;;;;;;;;;;;5065969;28;19924;-75
2021/01/21 06:34:15;;;;;;;;;;;;;;;;;;5068158;28;20301;-74
2021/01/21 06:36:41;;;;;;;;;;;;;;;;;;5064713;28;19935;-75
2021/01/21 06:39:07;;;;;;;;;;;;;;;;;;5067657;28;20006;-75
2021/01/21 06:41:32;;;;;;;;;;;;;;;;;;5047296;28;19939;-75
2021/01/21 06:43:58;;;;;;;;;;;;;;;;;;5067154;28;19931;-75
2021/01/21 06:46:24;;;;;;;;;;;;;;;;;;5066273;28;20380;-75
2021/01/21 06:48:50;;;;;;;;;;;;;;;;;;5068700;28;19970;-76
2021/01/21 06:51:16;;;;;;;;;;;;;;;;;;5074228;28;19925;-75
2021/01/21 06:53:42;;;;;;;;;;;;;;;;;;5069273;28;19932;-75
2021/01/21 06:56:08;;;;;;;;;;;;;;;;;;5051626;28;20474;-75
2021/01/21 06:58:34;;;;;;;;;;;;;;;;;;5063886;28;19946;-75
2021/01/21 07:01:00;;;;;;;;;;;;;;;;;;5066524;28;19924;-75
2021/01/21 07:03:26;;;;;;;;;;;;;;;;;;5056383;28;19971;-75
2021/01/21 07:05:51;;;;;;;;;;;;;;;;;;5064858;28;19932;-75
2021/01/21 07:08:17;;;;;;;;;;;;;;;;;;5065974;28;19932;-75
2021/01/21 07:10:44;;;;;;;;;;;;;;;;;;5052152;28;20696;-75
2021/01/21 07:13:10;;;;;;;;;;;;;;;;;;5044993;28;20278;-75
2021/01/21 07:15:36;;;;;;;;;;;;;;;;;;5042604;28;19932;-75
2021/01/21 07:18:01;;;;;;;;;;;;;;;;;;5045874;28;19983;-75
2021/01/21 07:20:27;;;;;;;;;;;;;;;;;;5056971;28;19932;-75
2021/01/21 07:22:53;;;;;;;;;;;;;;;;;;5063808;28;19931;-75
2021/01/21 07:25:19;;;;;;;;;;;;;;;;;;5043498;28;19971;-75
2021/01/21 07:27:45;;;;;;;;;;;;;;;;;;5054792;28;20120;-75
2021/01/21 07:30:11;;;;;;;;;;;;;;;;;;5065790;28;19935;-75
2021/01/21 07:32:37;;;;;;;;;;;;;;;;;;5065710;28;20045;-75
2021/01/21 07:35:03;;;;;;;;;;;;;;;;;;5069588;28;19929;-75
2021/01/21 07:37:29;;;;;;;;;;;;;;;;;;5067636;28;19924;-75
2021/01/21 07:39:55;;;;;;;;;;;;;;;;;;5067470;28;20694;-75
2021/01/21 07:42:21;;;;;;;;;;;;;;;;;;5051644;28;19936;-75
2021/01/21 07:44:47;;;;;;;;;;;;;;;;;;5067324;28;20313;-75
2021/01/21 07:47:13;;;;;;;;;;;;;;;;;;5070141;28;19924;-75
2021/01/21 07:49:39;;;;;;;;;;;;;;;;;;5066031;28;19936;-73
2021/01/21 07:52:05;;;;;;;;;;;;;;;;;;5069698;28;19928;-73
2021/01/21 07:54:31;;;;;;;;;;;;;;;;;;5067010;28;20340;-72
2021/01/21 07:56:56;;;;;;;;;;;;;;;;;;5054538;28;19940;-73
2021/01/21 07:59:23;;;;;;;;;;;;;;;;;;5063619;28;20270;-73
2021/01/21 08:01:48;;;;;;;;;;;;;;;;;;5059168;28;19932;-73
2021/01/21 08:04:14;;;;;;;;;;;;;;;;;;5051160;28;20305;-73
2021/01/21 08:06:40;;;;;;;;;;;;;;;;;;5050289;28;19924;-74
2021/01/21 08:09:06;;;;;;;;;;;;;;;;;;5068910;28;20546;-74
2021/01/21 08:11:32;;;;;;;;;;;;;;;;;;5054122;28;20353;-74
2021/01/21 08:13:58;;;;;;;;;;;;;;;;;;5051339;28;19924;-73
2021/01/21 08:16:24;;;;;;;;;;;;;;;;;;5068221;28;19929;-73
2021/01/21 08:18:50;;;;;;;;;;;;;;;;;;5067037;28;20702;-74
2021/01/21 08:21:16;;;;;;;;;;;;;;;;;;5068969;28;19978;-74
2021/01/21 08:23:42;;;;;;;;;;;;;;;;;;5058329;28;20648;-74
2021/01/21 08:26:08;;;;;;;;;;;;;;;;;;5048918;28;19925;-74
2021/01/21 08:28:34;;;;;;;;;;;;;;;;;;5037613;28;19924;-73
2021/01/21 08:31:00;;;;;;;;;;;;;;;;;;5061682;28;20014;-73
2021/01/21 08:33:26;;;;;;;;;;;;;;;;;;5053641;28;19924;-74
2021/01/21 08:35:52;;;;;;;;;;;;;;;;;;5049150;28;19925;-73
2021/01/21 08:38:18;;;;;;;;;;;;;;;;;;5048269;28;19925;-74
2021/01/21 08:40:44;;;;;;;;;;;;;;;;;;5046301;28;20364;-73
2021/01/21 08:43:10;;;;;;;;;;;;;;;;;;5048272;28;19925;-74
2021/01/21 08:45:36;;;;;;;;;;;;;;;;;;5036998;28;19936;-73
2021/01/21 08:48:02;;;;;;;;;;;;;;;;;;5045212;28;19932;-74
2021/01/21 08:50:28;;;;;;;;;;;;;;;;;;5047384;28;19925;-74
2021/01/21 08:52:54;;;;;;;;;;;;;;;;;;5049106;28;20281;-74
2021/01/21 08:55:20;;;;;;;;;;;;;;;;;;5053698;28;19925;-74
2021/01/21 08:57:46;;;;;;;;;;;;;;;;;;5064191;28;19932;-74
2021/01/21 09:00:12;;;;;;;;;;;;;;;;;;5046710;28;20002;-75
2021/01/21 09:02:38;;;;;;;;;;;;;;;;;;5048401;28;19925;-75
2021/01/21 09:05:04;;;;;;;;;;;;;;;;;;5044939;28;20742;-75
2021/01/21 09:07:30;;;;;;;;;;;;;;;;;;5056960;28;19932;-74
2021/01/21 09:09:56;;;;;;;;;;;;;;;;;;5049000;28;19925;-74
2021/01/21 09:12:22;;;;;;;;;;;;;;;;;;5048137;28;19928;-74
2021/01/21 09:14:48;;;;;;;;;;;;;;;;;;5046033;28;20400;-74
2021/01/21 09:17:14;;;;;;;;;;;;;;;;;;5052456;28;19932;-74
2021/01/21 09:19:40;;;;;;;;;;;;;;;;;;5053254;28;20077;-75
2021/01/21 09:22:06;;;;;;;;;;;;;;;;;;5042882;28;19939;-74
2021/01/21 09:24:32;;;;;;;;;;;;;;;;;;5047970;28;19932;-77
2021/01/21 09:26:58;;;;;;;;;;;;;;;;;;5048843;28;19979;-74
2021/01/21 09:29:24;;;;;;;;;;;;;;;;;;5052752;28;19925;-75
2021/01/21 09:31:50;;;;;;;;;;;;;;;;;;5054311;28;20285;-75
2021/01/21 09:34:16;;;;;;;;;;;;;;;;;;5053884;28;19951;-77
2021/01/21 09:36:42;;;;;;;;;;;;;;;;;;5043837;28;20366;-77
2021/01/21 09:39:08;;;;;;;;;;;;;;;;;;5042460;28;19931;-76
2021/01/21 09:41:34;;;;;;;;;;;;;;;;;;5039905;28;22311;-77
2021/01/21 09:44:00;;;;;;;;;;;;;;;;;;5051642;28;20286;-78
2021/01/21 09:46:26;;;;;;;;;;;;;;;;;;5041694;28;20051;-79
2021/01/21 09:48:52;;;;;;;;;;;;;;;;;;5059216;28;19935;-79
2021/01/21 09:51:17;;;;;;;;;;;;;;;;;;5051342;28;20377;-78
2021/01/21 09:53:43;;;;;;;;;;;;;;;;;;5059295;28;19929;-78
2021/01/21 09:56:11;;;;;;;;;;;;;;;;;;5054196;28;19925;-77
2021/01/21 09:58:37;;;;;;;;;;;;;;;;;;5064534;28;19971;-77
2021/01/21 10:01:03;;;;;;;;;;;;;;;;;;5054603;28;19925;-78
2021/01/21 10:03:29;;;;;;;;;;;;;;;;;;5048517;28;19925;-78
2021/01/21 10:05:55;;;;;;;;;;;;;;;;;;5060444;28;19932;-78
2021/01/21 10:08:21;;;;;;;;;;;;;;;;;;5054808;28;19925;-78
2021/01/21 10:10:47;;;;;;;;;;;;;;;;;;5055717;28;19932;-78
2021/01/21 10:13:12;;;;;;;;;;;;;;;;;;5058903;28;19928;-78
2021/01/21 10:15:40;;;;;;;;;;;;;;;;;;5050701;28;19925;-77
2021/01/21 10:18:06;;;;;;;;;;;;;;;;;;5044644;28;19924;-77
2021/01/21 10:20:32;;;;;;;;;;;;;;;;;;5065356;28;19930;-78
2021/01/21 10:22:58;;;;;;;;;;;;;;;;;;5054598;28;19925;-77
2021/01/21 10:25:24;;;;;;;;;;;;;;;;;;5051403;28;20347;-77
2021/01/21 10:27:50;;;;;;;;;;;;;;;;;;5051698;28;19925;-78
2021/01/21 10:30:15;;;;;;;;;;;;;;;;;;5048860;28;19928;-77
2021/01/21 10:32:41;;;;;;;;;;;;;;;;;;5049155;28;19928;-77
2021/01/21 10:35:07;;;;;;;;;;;;;;;;;;5042605;28;20027;-78
2021/01/21 10:37:33;;;;;;;;;;;;;;;;;;5060896;28;19932;-79
2021/01/21 10:39:59;;;;;;;;;;;;;;;;;;5069311;28;19931;-79
2021/01/21 10:42:25;;;;;;;;;;;;;;;;;;5043918;28;19925;-79
2021/01/21 10:44:51;;;;;;;;;;;;;;;;;;5052022;28;19931;-78
2021/01/21 10:47:17;;;;;;;;;;;;;;;;;;5046390;28;20389;-77
2021/01/21 10:49:43;;;;;;;;;;;;;;;;;;5047264;28;19924;-78
2021/01/21 10:52:09;;;;;;;;;;;;;;;;;;5068071;28;19924;-77
2021/01/21 10:54:35;;;;;;;;;;;;;;;;;;5052304;28;19925;-77
2021/01/21 10:57:01;;;;;;;;;;;;;;;;;;5041895;28;19955;-78
2021/01/21 10:59:27;;;;;;;;;;;;;;;;;;5041412;28;19931;-78
2021/01/21 11:01:53;;;;;;;;;;;;;;;;;;5054511;28;19928;-78
2021/01/21 11:04:19;;;;;;;;;;;;;;;;;;5043771;28;20161;-76
2021/01/21 11:06:45;;;;;;;;;;;;;;;;;;5051826;28;20385;-78
2021/01/21 11:09:11;;;;;;;;;;;;;;;;;;5044591;28;19939;-76
2021/01/21 11:11:37;;;;;;;;;;;;;;;;;;5049216;28;19928;-76
2021/01/21 11:14:03;;;;;;;;;;;;;;;;;;5039858;28;19925;-76
2021/01/21 11:16:29;;;;;;;;;;;;;;;;;;5057320;28;19924;-78
2021/01/21 11:18:55;;;;;;;;;;;;;;;;;;5060946;28;19924;-77
2021/01/21 11:21:21;;;;;;;;;;;;;;;;;;5043823;28;19933;-77
2021/01/21 11:23:47;;;;;;;;;;;;;;;;;;5046933;28;19929;-77
2021/01/21 11:26:13;;;;;;;;;;;;;;;;;;5051002;28;19964;-77
2021/01/21 11:28:38;;;;;;;;;;;;;;;;;;5048811;28;19925;-77
2021/01/21 11:31:04;;;;;;;;;;;;;;;;;;5046322;28;20373;-78
2021/01/21 11:33:30;;;;;;;;;;;;;;;;;;5049224;28;19925;-78
2021/01/21 11:35:56;;;;;;;;;;;;;;;;;;5040285;28;19925;-77
2021/01/21 11:38:22;;;;;;;;;;;;;;;;;;5056862;28;20309;-77
2021/01/21 11:40:48;;;;;;;;;;;;;;;;;;5046119;28;20016;-78
2021/01/21 11:43:14;;;;;;;;;;;;;;;;;;5052117;28;20341;-76
2021/01/21 11:45:41;;;;;;;;;;;;;;;;;;5055876;28;19925;-77
2021/01/21 11:48:07;;;;;;;;;;;;;;;;;;5057597;28;19947;-77
2021/01/21 11:50:33;;;;;;;;;;;;;;;;;;5050381;28;20301;-76
2021/01/21 11:52:59;;;;;;;;;;;;;;;;;;5035726;28;19961;-75
2021/01/21 11:55:25;;;;;;;;;;;;;;;;;;5050777;28;19932;-78
2021/01/21 11:57:51;;;;;;;;;;;;;;;;;;5041480;28;20083;-76
2021/01/21 12:00:17;;;;;;;;;;;;;;;;;;5039614;28;19933;-77
2021/01/21 12:02:43;;;;;;;;;;;;;;;;;;5046054;28;19978;-76
2021/01/21 12:05:09;;;;;;;;;;;;;;;;;;5045083;28;20383;-78
2021/01/21 12:07:35;;;;;;;;;;;;;;;;;;5056521;28;19929;-77
2021/01/21 12:10:01;;;;;;;;;;;;;;;;;;5042677;28;19933;-76
2021/01/21 12:12:27;;;;;;;;;;;;;;;;;;5050554;28;19924;-78
2021/01/21 12:14:53;;;;;;;;;;;;;;;;;;5043144;28;19924;-77
2021/01/21 12:17:19;;;;;;;;;;;;;;;;;;5054994;28;19935;-78
2021/01/21 12:19:45;;;;;;;;;;;;;;;;;;5060908;28;19924;-77
2021/01/21 12:22:11;;;;;;;;;;;;;;;;;;5049924;28;19947;-79
2021/01/21 12:24:36;;;;;;;;;;;;;;;;;;5044263;28;19940;-77
2021/01/21 12:27:02;;;;;;;;;;;;;;;;;;5051152;28;19987;-77
2021/01/21 12:29:28;;;;;;;;;;;;;;;;;;5063514;28;19925;-77
2021/01/21 12:31:54;;;;;;;;;;;;;;;;;;5056350;28;19932;-77
2021/01/21 12:34:20;;;;;;;;;;;;;;;;;;5054216;28;19932;-77
2021/01/21 12:36:46;;;;;;;;;;;;;;;;;;5061899;28;19924;-78
2021/01/21 12:39:12;;;;;;;;;;;;;;;;;;5044336;28;19932;-77
2021/01/21 12:41:38;;;;;;;;;;;;;;;;;;5047792;28;19932;-77
2021/01/21 12:44:04;;;;;;;;;;;;;;;;;;5046596;28;19933;-78
2021/01/21 12:46:30;;;;;;;;;;;;;;;;;;5058897;28;20288;-77
2021/01/21 12:48:56;;;;;;;;;;;;;;;;;;5057474;28;19947;-77
2021/01/21 12:51:22;;;;;;;;;;;;;;;;;;5052172;28;19951;-79
2021/01/21 12:53:48;;;;;;;;;;;;;;;;;;5055845;28;20019;-77
2021/01/21 12:56:13;;;;;;;;;;;;;;;;;;5043989;28;20124;-78
2021/01/21 12:58:39;;;;;;;;;;;;;;;;;;5052788;28;19971;-79
2021/01/21 13:01:05;;;;;;;;;;;;;;;;;;5053493;28;20340;-79
2021/01/21 13:03:31;;;;;;;;;;;;;;;;;;5055737;28;20000;-79
2021/01/21 13:05:57;;;;;;;;;;;;;;;;;;5045339;28;19925;-80
2021/01/21 13:08:23;;;;;;;;;;;;;;;;;;5051944;28;19939;-79
2021/01/21 13:10:49;;;;;;;;;;;;;;;;;;5054941;28;19928;-79
2021/01/21 13:13:16;;;;;;;;;;;;;;;;;;5037334;28;19962;-77
2021/01/21 13:15:45;;;;;;;;;;;;;;;;;;5048592;28;20117;-79
2021/01/21 13:18:11;;;;;;;;;;;;;;;;;;5047666;28;19975;-79
2021/01/21 13:20:37;;;;;;;;;;;;;;;;;;5057191;28;20068;-77
2021/01/21 13:23:06;;;;;;;;;;;;;;;;;;5060541;28;20279;-78
2021/01/21 13:25:32;;;;;;;;;;;;;;;;;;5043200;28;19940;-78
2021/01/21 13:27:58;;;;;;;;;;;;;;;;;;5041666;28;19925;-79
2021/01/21 13:30:24;;;;;;;;;;;;;;;;;;5047927;28;19971;-77
2021/01/21 13:32:50;;;;;;;;;;;;;;;;;;5045354;28;19933;-78
2021/01/21 13:35:16;;;;;;;;;;;;;;;;;;5046095;28;19982;-79
2021/01/21 13:37:41;;;;;;;;;;;;;;;;;;5061741;28;19939;-79
2021/01/21 13:40:07;;;;;;;;;;;;;;;;;;5054357;28;19932;-78
2021/01/21 13:42:33;;;;;;;;;;;;;;;;;;5053675;28;19925;-78
2021/01/21 13:44:59;;;;;;;;;;;;;;;;;;5053394;28;19951;-76
2021/01/21 13:47:25;;;;;;;;;;;;;;;;;;5044665;28;19925;-76
2021/01/21 13:49:52;;;;;;;;;;;;;;;;;;5040332;28;19933;-77
2021/01/21 13:52:18;;;;;;;;;;;;;;;;;;5064780;28;19931;-78
2021/01/21 13:54:44;;;;;;;;;;;;;;;;;;5047412;28;19933;-78
2021/01/21 13:57:10;;;;;;;;;;;;;;;;;;5049389;28;20399;-77
2021/01/21 13:59:36;;;;;;;;;;;;;;;;;;5039100;28;20719;-77
2021/01/21 14:02:02;;;;;;;;;;;;;;;;;;5058395;28;19929;-77
2021/01/21 14:04:28;;;;;;;;;;;;;;;;;;5048708;28;19925;-78
2021/01/21 14:06:54;;;;;;;;;;;;;;;;;;5050406;28;19928;-77
2021/01/21 14:09:20;;;;;;;;;;;;;;;;;;5058575;28;19948;-78
2021/01/21 14:11:46;;;;;;;;;;;;;;;;;;5049599;28;19925;-78
2021/01/21 14:14:12;;;;;;;;;;;;;;;;;;5040571;28;19932;-78
2021/01/21 14:16:37;;;;;;;;;;;;;;;;;;5045709;28;19929;-78
2021/01/21 14:19:03;;;;;;;;;;;;;;;;;;5047055;28;19925;-78
2021/01/21 14:21:30;;;;;;;;;;;;;;;;;;5053195;28;19924;-77
2021/01/21 14:23:56;;;;;;;;;;;;;;;;;;5048358;28;19928;-78
2021/01/21 14:26:22;;;;;;;;;;;;;;;;;;5047479;28;20014;-78
2021/01/21 14:28:48;;;;;;;;;;;;;;;;;;5037667;28;20018;-78
2021/01/21 14:31:14;;;;;;;;;;;;;;;;;;5045561;28;20405;-79
2021/01/21 14:33:39;;;;;;;;;;;;;;;;;;5042420;28;19940;-77
2021/01/21 14:36:05;;;;;;;;;;;;;;;;;;5050736;28;20309;-77
2021/01/21 14:38:31;;;;;;;;;;;;;;;;;;5043975;28;19944;-77
2021/01/21 14:40:57;;;;;;;;;;;;;;;;;;5063123;28;19924;-79
2021/01/21 14:43:23;;;;;;;;;;;;;;;;;;5050947;28;19948;-77
2021/01/21 14:45:49;;;;;;;;;;;;;;;;;;5036840;28;20302;-79
2021/01/21 14:48:15;;;;;;;;;;;;;;;;;;5047214;28;20301;-78
2021/01/21 14:50:41;;;;;;;;;;;;;;;;;;5037799;28;19939;-75
2021/01/21 14:53:08;;;;;;;;;;;;;;;;;;5058090;28;19925;-76
2021/01/21 14:55:34;;;;;;;;;;;;;;;;;;5043154;28;19929;-77
2021/01/21 14:58:00;;;;;;;;;;;;;;;;;;5057211;28;19955;-78
2021/01/21 15:00:26;;;;;;;;;;;;;;;;;;5046584;28;19967;-77
2021/01/21 15:02:51;;;;;;;;;;;;;;;;;;5062995;28;19975;-77
2021/01/21 15:05:17;;;;;;;;;;;;;;;;;;5055352;28;19928;-78
2021/01/21 15:07:43;;;;;;;;;;;;;;;;;;5050412;28;20454;-78
2021/01/21 15:10:09;;;;;;;;;;;;;;;;;;5062039;28;19959;-77
2021/01/21 15:12:35;;;;;;;;;;;;;;;;;;5052335;28;19948;-78
2021/01/21 15:15:01;;;;;;;;;;;;;;;;;;5041460;28;20266;-76
2021/01/21 15:17:27;;;;;;;;;;;;;;;;;;5055453;28;19925;-78
2021/01/21 15:19:53;;;;;;;;;;;;;;;;;;5041561;28;20452;-78
2021/01/21 15:22:19;;;;;;;;;;;;;;;;;;5045603;28;19924;-78
2021/01/21 15:24:45;;;;;;;;;;;;;;;;;;5042590;28;19925;-79
2021/01/21 15:27:11;;;;;;;;;;;;;;;;;;5052228;28;19924;-77
2021/01/21 15:29:37;;;;;;;;;;;;;;;;;;5051400;28;19928;-77
2021/01/21 15:32:03;;;;;;;;;;;;;;;;;;5053126;28;20456;-79
2021/01/21 15:34:29;;;;;;;;;;;;;;;;;;5041504;28;19931;-78
2021/01/21 15:36:55;;;;;;;;;;;;;;;;;;5054871;28;20371;-76
2021/01/21 15:39:21;;;;;;;;;;;;;;;;;;5046977;28;19932;-76
2021/01/21 15:41:47;;;;;;;;;;;;;;;;;;5045898;28;19924;-76
2021/01/21 15:44:14;;;;;;;;;;;;;;;;;;5046298;28;19925;-75
2021/01/21 15:46:49;;;;;;;;;;;;;;;;;;5033925;28;19963;-78
2021/01/21 15:49:20;;;;;;;;;;;;;;;;;;5044222;28;20270;-76
2021/01/21 15:51:46;;;;;;;;;;;;;;;;;;5039941;28;19937;-77
2021/01/21 15:54:12;;;;;;;;;;;;;;;;;;5044566;28;19978;-76
2021/01/21 15:56:38;;;;;;;;;;;;;;;;;;5063184;28;19924;-78
2021/01/21 15:59:04;;;;;;;;;;;;;;;;;;5061649;28;19925;-77
2021/01/21 16:01:30;;;;;;;;;;;;;;;;;;5054970;28;20258;-78
2021/01/21 16:03:56;;;;;;;;;;;;;;;;;;5058609;28;19925;-77
2021/01/21 16:06:25;;;;;;;;;;;;;;;;;;5051986;28;19928;-76
2021/01/21 16:08:51;;;;;;;;;;;;;;;;;;5052817;28;19932;-77
2021/01/21 16:11:19;;;;;;;;;;;;;;;;;;5050850;28;19936;-76
2021/01/21 16:13:45;;;;;;;;;;;;;;;;;;5051925;28;19955;-77
2021/01/21 16:16:11;;;;;;;;;;;;;;;;;;5061931;28;19978;-77
2021/01/21 16:18:37;;;;;;;;;;;;;;;;;;5040568;28;19951;-77
2021/01/21 16:21:03;;;;;;;;;;;;;;;;;;5051245;28;20460;-75
2021/01/21 16:23:29;;;;;;;;;;;;;;;;;;5046089;28;19924;-77
2021/01/21 16:25:56;;;;;;;;;;;;;;;;;;5057411;28;19925;-75
2021/01/21 16:28:22;;;;;;;;;;;;;;;;;;5053459;28;19928;-76
2021/01/21 16:30:50;;;;;;;;;;;;;;;;;;5061531;28;20177;-76
2021/01/21 16:33:16;;;;;;;;;;;;;;;;;;5046573;28;19955;-78
2021/01/21 16:35:42;;;;;;;;;;;;;;;;;;5061154;28;20412;-77